createdAt,value
2022-10-17T00:00:59.927Z,99290.56
2022-10-17T00:03:26.995Z,99295.31
2022-10-17T00:05:54.069Z,99300.47
2022-10-17T00:08:21.180Z,99305.66
2022-10-17T00:11:05.414Z,99307.19
2022-10-17T00:16:06.222Z,99308.28
2022-10-17T00:18:33.218Z,99303.97
2022-10-17T00:21:00.486Z,99306.00
2022-10-17T00:23:28.565Z,99311.63
2022-10-17T00:26:04.737Z,99312.50
2022-10-17T00:28:33.233Z,99318.44
2022-10-17T00:31:04.818Z,99321.06
2022-10-17T00:33:33.593Z,99317.56
2022-10-17T00:36:08.614Z,99320.53
2022-10-17T00:38:37.146Z,99318.53
2022-10-17T00:41:05.212Z,99327.88
2022-10-17T00:44:06.202Z,99330.78
2022-10-17T00:46:40.912Z,99329.72
2022-10-17T00:49:12.704Z,99326.41
2022-10-17T00:51:47.523Z,99323.69
2022-10-17T00:54:17.809Z,99322.09
2022-10-17T00:56:48.293Z,99321.06
2022-10-17T00:59:18.817Z,99321.78
2022-10-17T01:01:57.153Z,99331.81
2022-10-17T01:04:26.929Z,99322.91
2022-10-17T01:06:54.121Z,99321.78
2022-10-17T01:09:21.999Z,99328.75
2022-10-17T01:12:00.153Z,99324.56
2022-10-17T01:14:53.965Z,99320.19
2022-10-17T01:17:55.454Z,99326.75
2022-10-17T01:20:32.399Z,99334.78
2022-10-17T01:23:19.352Z,99333.03
2022-10-17T01:26:29.966Z,99335.91
2022-10-17T01:30:02.573Z,99337.84
2022-10-17T01:32:45.912Z,99331.81
2022-10-17T01:35:27.933Z,99335.50
2022-10-17T01:38:07.094Z,99341.69
2022-10-17T01:40:44.796Z,99335.38
2022-10-17T01:43:26.339Z,99334.41
2022-10-17T01:46:02.660Z,99331.59
2022-10-17T01:48:43.378Z,99332.41
2022-10-17T01:51:21.196Z,99334.81
2022-10-17T01:54:00.329Z,99327.38
2022-10-17T01:56:32.298Z,99328.50
2022-10-17T01:59:12.733Z,99326.75
2022-10-17T02:01:42.768Z,99318.78
2022-10-17T02:04:11.490Z,99314.19
2022-10-17T02:06:39.030Z,99316.38
2022-10-17T02:09:26.716Z,99321.44
2022-10-17T02:12:29.239Z,99330.00
2022-10-17T02:15:20.016Z,99323.75
2022-10-17T02:18:15.368Z,99319.75
2022-10-17T02:20:57.155Z,99319.59
2022-10-17T02:23:56.369Z,99323.50
2022-10-17T02:26:54.032Z,99323.28
2022-10-17T02:29:43.304Z,99331.56
2022-10-17T02:34:54.685Z,99334.34
2022-10-17T02:37:28.082Z,99335.16
2022-10-17T02:39:58.151Z,99334.59
2022-10-17T02:42:27.641Z,99330.06
2022-10-17T02:45:01.071Z,99331.88
2022-10-17T02:47:51.279Z,99338.41
2022-10-17T02:53:09.397Z,99336.69
2022-10-17T02:55:46.818Z,99347.41
2022-10-17T02:58:24.216Z,99347.41
2022-10-17T03:00:52.432Z,99352.13
2022-10-17T03:03:23.778Z,99347.41
2022-10-17T03:05:52.342Z,99351.44
2022-10-17T03:08:23.732Z,99347.34
2022-10-17T03:10:51.563Z,99353.88
2022-10-17T03:13:19.567Z,99350.06
2022-10-17T03:15:47.073Z,99354.72
2022-10-17T03:18:14.493Z,99356.59
2022-10-17T03:20:44.806Z,99352.75
2022-10-17T03:23:12.183Z,99363.59
2022-10-17T03:25:41.906Z,99358.81
2022-10-17T03:28:10.697Z,99369.06
2022-10-17T03:30:38.983Z,99370.09
2022-10-17T03:33:06.660Z,99376.50
2022-10-17T03:35:33.917Z,99382.78
2022-10-17T03:38:00.925Z,99371.78
2022-10-17T03:40:29.733Z,99375.88
2022-10-17T03:42:57.055Z,99382.75
2022-10-17T03:45:24.339Z,99379.31
2022-10-17T03:47:53.238Z,99383.69
2022-10-17T03:50:20.896Z,99381.22
2022-10-17T03:52:49.595Z,99386.31
2022-10-17T03:55:17.953Z,99391.03
2022-10-17T03:57:45.741Z,99384.09
2022-10-17T04:00:14.974Z,99385.16
2022-10-17T04:02:42.140Z,99386.59
2022-10-17T04:05:15.053Z,99373.91
2022-10-17T04:07:42.142Z,99393.31
2022-10-17T04:10:10.967Z,99384.75
2022-10-17T04:12:38.412Z,99390.97
2022-10-17T04:15:06.794Z,99394.78
2022-10-17T04:17:37.339Z,99394.69
2022-10-17T04:20:30.648Z,99395.63
2022-10-17T04:22:58.011Z,99391.56
2022-10-17T04:25:27.866Z,99398.50
2022-10-17T04:27:55.438Z,99404.47
2022-10-17T04:30:22.812Z,99406.72
2022-10-17T04:32:51.069Z,99397.41
2022-10-17T04:35:21.293Z,99408.31
2022-10-17T04:37:54.137Z,99405.91
2022-10-17T04:40:21.299Z,99411.16
2022-10-17T04:42:50.687Z,99420.25
2022-10-17T04:45:20.970Z,99410.28
2022-10-17T04:47:51.886Z,99414.84
2022-10-17T04:50:19.429Z,99415.72
2022-10-17T04:53:04.628Z,99409.25
2022-10-17T04:55:32.309Z,99414.66
2022-10-17T04:58:02.890Z,99412.91
2022-10-17T05:00:30.873Z,99411.31
2022-10-17T05:03:21.199Z,99421.44
2022-10-17T05:05:48.736Z,99405.91
2022-10-17T05:08:17.176Z,99410.38
2022-10-17T05:10:46.325Z,99422.31
2022-10-17T05:13:14.367Z,99413.22
2022-10-17T05:15:41.699Z,99414.84
2022-10-17T05:18:08.931Z,99414.66
2022-10-17T05:20:37.030Z,99415.56
2022-10-17T05:23:04.199Z,99425.50
2022-10-17T05:25:36.066Z,99406.63
2022-10-17T05:28:04.403Z,99411.97
2022-10-17T05:30:35.224Z,99416.28
2022-10-17T05:33:07.134Z,99416.06
2022-10-17T05:35:34.374Z,99416.59
2022-10-17T05:38:02.151Z,99421.00
2022-10-17T05:40:31.442Z,99413.09
2022-10-17T05:42:59.059Z,99417.16
2022-10-17T05:45:26.250Z,99417.16
2022-10-17T05:47:53.715Z,99424.34
2022-10-17T05:50:22.104Z,99426.97
2022-10-17T05:53:04.043Z,99425.22
2022-10-17T05:55:34.202Z,99430.31
2022-10-17T05:58:02.236Z,99428.78
2022-10-17T06:00:34.648Z,99432.38
2022-10-17T06:03:02.211Z,99436.75
2022-10-17T06:05:29.552Z,99452.66
2022-10-17T06:07:59.618Z,99451.69
2022-10-17T06:10:30.400Z,99454.34
2022-10-17T06:12:57.689Z,99456.97
2022-10-17T06:15:26.037Z,99453.00
2022-10-17T06:18:00.547Z,99453.38
2022-10-17T06:20:27.684Z,99455.78
2022-10-17T06:22:54.933Z,99457.97
2022-10-17T06:25:39.285Z,99455.78
2022-10-17T06:28:06.907Z,99459.13
2022-10-17T06:30:34.418Z,99453.66
2022-10-17T06:33:01.985Z,99452.63
2022-10-17T06:35:29.407Z,99451.19
2022-10-17T06:37:57.216Z,99463.34
2022-10-17T06:40:25.565Z,99465.16
2022-10-17T06:42:56.592Z,99477.22
2022-10-17T06:45:42.395Z,99472.22
2022-10-17T06:48:19.633Z,99477.22
2022-10-17T06:51:12.274Z,99474.63
2022-10-17T06:53:47.995Z,99488.34
2022-10-17T06:56:36.245Z,99490.59
2022-10-17T06:59:22.531Z,99497.44
2022-10-17T07:02:01.502Z,99497.13
2022-10-17T07:04:29.824Z,99495.47
2022-10-17T07:09:31.323Z,99500.28
2022-10-17T07:11:59.733Z,99509.41
2022-10-17T07:14:32.127Z,99519.75
2022-10-17T07:17:00.292Z,99518.72
2022-10-17T07:19:29.905Z,99518.59
2022-10-17T07:21:56.995Z,99519.22
2022-10-17T07:24:24.440Z,99520.00
2022-10-17T07:27:18.169Z,99524.13
2022-10-17T07:29:46.316Z,99522.44
2022-10-17T07:32:32.040Z,99530.28
2022-10-17T07:34:59.758Z,99530.34
2022-10-17T07:37:27.134Z,99534.13
2022-10-17T07:39:56.572Z,99535.84
2022-10-17T07:42:24.192Z,99527.53
2022-10-17T07:44:51.254Z,99526.31
2022-10-17T07:47:20.837Z,99539.03
2022-10-17T07:49:49.369Z,99530.69
2022-10-17T07:52:17.453Z,99532.00
2022-10-17T07:54:44.737Z,99535.16
2022-10-17T07:57:11.985Z,99540.44
2022-10-17T07:59:39.121Z,99540.91
2022-10-17T08:02:08.082Z,99538.63
2022-10-17T08:04:36.466Z,99541.06
2022-10-17T08:07:19.102Z,99533.59
2022-10-17T08:09:48.041Z,99535.72
2022-10-17T08:12:15.284Z,99537.16
2022-10-17T08:14:43.950Z,99538.03
2022-10-17T08:17:12.387Z,99537.53
2022-10-17T08:19:40.529Z,99535.81
2022-10-17T08:22:07.991Z,99537.66
2022-10-17T08:24:35.490Z,99529.38
2022-10-17T08:27:03.998Z,99533.19
2022-10-17T08:29:32.886Z,99533.63
2022-10-17T08:32:01.541Z,99539.44
2022-10-17T08:34:29.490Z,99535.72
2022-10-17T08:36:56.632Z,99545.34
2022-10-17T08:39:23.806Z,99542.72
2022-10-17T08:41:56.813Z,99548.53
2022-10-17T08:44:48.108Z,99543.75
2022-10-17T08:47:25.008Z,99542.03
2022-10-17T08:49:57.303Z,99543.78
2022-10-17T08:52:53.005Z,99542.72
2022-10-17T08:55:42.825Z,99537.88
2022-10-17T08:58:27.179Z,99536.59
2022-10-17T09:01:10.507Z,99527.63
2022-10-17T09:04:15.622Z,99531.97
2022-10-17T09:07:21.113Z,99536.66
2022-10-17T09:10:17.245Z,99537.38
2022-10-17T09:13:13.026Z,99538.34
2022-10-17T09:16:09.421Z,99547.28
2022-10-17T09:18:41.909Z,99541.59
2022-10-17T09:21:19.581Z,99540.88
2022-10-17T09:24:09.645Z,99537.47
2022-10-17T09:26:40.484Z,99534.09
2022-10-17T09:29:23.229Z,99534.13
2022-10-17T09:32:18.411Z,99532.44
2022-10-17T09:34:45.516Z,99532.22
2022-10-17T09:37:17.351Z,99528.59
2022-10-17T09:39:45.449Z,99541.69
2022-10-17T09:42:19.237Z,99530.72
2022-10-17T09:44:57.516Z,99525.22
2022-10-17T09:47:45.737Z,99523.16
2022-10-17T09:50:29.446Z,99525.09
2022-10-17T09:53:01.800Z,99525.28
2022-10-17T09:55:42.620Z,99526.41
2022-10-17T09:58:11.161Z,99522.75
2022-10-17T10:00:42.920Z,99517.09
2022-10-17T10:03:12.925Z,99519.91
2022-10-17T10:05:41.855Z,99516.91
2022-10-17T10:08:16.026Z,99523.00
2022-10-17T10:10:44.847Z,99515.53
2022-10-17T10:13:14.875Z,99517.63
2022-10-17T10:15:45.662Z,99523.59
2022-10-17T10:18:26.602Z,99522.84
2022-10-17T10:21:14.206Z,99520.88
2022-10-17T10:24:02.772Z,99517.47
2022-10-17T10:26:35.337Z,99525.91
2022-10-17T10:29:17.198Z,99519.13
2022-10-17T10:31:44.481Z,99522.06
2022-10-17T10:34:26.617Z,99518.78
2022-10-17T10:36:58.008Z,99525.31
2022-10-17T10:39:46.084Z,99530.09
2022-10-17T10:42:32.662Z,99525.56
2022-10-17T10:45:05.063Z,99529.84
2022-10-17T10:47:33.236Z,99531.88
2022-10-17T10:50:25.650Z,99537.44
2022-10-17T10:53:01.949Z,99531.31
2022-10-17T10:55:51.080Z,99529.53
2022-10-17T10:58:32.071Z,99529.09
2022-10-17T11:01:05.442Z,99517.22
2022-10-17T11:04:28.706Z,99525.91
2022-10-17T11:07:08.825Z,99522.47
2022-10-17T11:10:01.134Z,99523.19
2022-10-17T11:12:39.507Z,99516.97
2022-10-17T11:15:28.202Z,99515.34
2022-10-17T11:18:01.261Z,99515.09
2022-10-17T11:20:58.908Z,99513.94
2022-10-17T11:23:58.435Z,99508.63
2022-10-17T11:26:35.897Z,99508.31
2022-10-17T11:29:06.727Z,99495.28
2022-10-17T11:31:43.445Z,99498.78
2022-10-17T11:34:19.526Z,99496.66
2022-10-17T11:36:52.456Z,99497.81
2022-10-17T11:39:31.563Z,99492.84
2022-10-17T11:42:09.921Z,99493.63
2022-10-17T11:44:39.637Z,99499.25
2022-10-17T11:47:22.451Z,99490.56
2022-10-17T11:49:55.941Z,99487.38
2022-10-17T11:52:55.997Z,99495.66
2022-10-17T11:55:30.634Z,99487.50
2022-10-17T11:58:35.814Z,99490.59
2022-10-17T12:01:27.314Z,99481.31
2022-10-17T12:04:30.888Z,99487.19
2022-10-17T12:07:09.155Z,99482.41
2022-10-17T12:10:07.394Z,99483.31
2022-10-17T12:12:35.385Z,99497.03
2022-10-17T12:15:26.182Z,99479.47
2022-10-17T12:18:00.963Z,99472.22
2022-10-17T12:20:38.484Z,99482.34
2022-10-17T12:23:11.801Z,99476.50
2022-10-17T12:25:55.902Z,99482.53
2022-10-17T12:28:37.552Z,99480.25
2022-10-17T12:31:33.397Z,99471.81
2022-10-17T12:34:05.041Z,99482.00
2022-10-17T12:36:32.410Z,99468.06
2022-10-17T12:39:02.127Z,99469.66
2022-10-17T12:41:38.229Z,99492.25
2022-10-17T12:44:14.641Z,99477.41
2022-10-17T12:46:49.343Z,99473.38
2022-10-17T12:49:39.613Z,99489.19
2022-10-17T12:52:25.136Z,99476.81
2022-10-17T12:55:07.509Z,99481.56
2022-10-17T12:57:48.354Z,99476.16
2022-10-17T13:00:37.076Z,99481.09
2022-10-17T13:03:18.289Z,99473.69
2022-10-17T13:05:56.856Z,99471.63
2022-10-17T13:08:34.277Z,99471.13
2022-10-17T13:11:02.118Z,99480.53
2022-10-17T13:13:44.442Z,99481.72
2022-10-17T13:16:32.008Z,99483.03
2022-10-17T13:19:01.531Z,99482.66
2022-10-17T13:21:29.705Z,99489.41
2022-10-17T13:23:57.183Z,99491.00
2022-10-17T13:26:28.960Z,99484.81
2022-10-17T13:29:10.797Z,99495.34
2022-10-17T13:31:41.676Z,99491.25
2022-10-17T13:34:21.850Z,99487.09
2022-10-17T13:36:54.291Z,99493.25
2022-10-17T13:39:38.270Z,99497.81
2022-10-17T13:42:37.195Z,99494.69
2022-10-17T13:45:17.271Z,99500.31
2022-10-17T13:47:44.926Z,99503.59
2022-10-17T13:50:45.321Z,99499.50
2022-10-17T13:53:37.148Z,99496.56
2022-10-17T13:56:27.796Z,99466.72
2022-10-17T13:58:58.121Z,99497.13
2022-10-17T14:01:28.118Z,99513.53
2022-10-17T14:04:07.702Z,99510.19
2022-10-17T14:06:43.948Z,99512.44
2022-10-17T14:09:26.852Z,99508.69
2022-10-17T14:12:12.680Z,99515.00
2022-10-17T14:15:09.199Z,99514.00
2022-10-17T14:17:34.983Z,99513.69
2022-10-17T14:20:29.669Z,99513.44
2022-10-17T14:23:20.948Z,99517.59
2022-10-17T14:25:41.296Z,99515.03
2022-10-17T14:28:12.349Z,99524.25
2022-10-17T14:30:57.178Z,99522.53
2022-10-17T14:33:29.554Z,99522.44
2022-10-17T14:35:59.433Z,99530.91
2022-10-17T14:38:28.866Z,99528.84
2022-10-17T14:41:44.612Z,99536.63
2022-10-17T14:44:27.061Z,99523.81
2022-10-17T14:47:03.442Z,99519.78
2022-10-17T14:49:41.090Z,99528.63
2022-10-17T14:52:18.236Z,99521.63
2022-10-17T14:54:50.228Z,99528.97
2022-10-17T14:57:29.159Z,99526.06
2022-10-17T14:59:57.285Z,99526.31
2022-10-17T15:02:26.929Z,99527.81
2022-10-17T15:04:54.926Z,99529.53
2022-10-17T15:07:23.525Z,99528.09
2022-10-17T15:09:53.207Z,99527.25
2022-10-17T15:12:25.583Z,99531.66
2022-10-17T15:14:53.804Z,99531.16
2022-10-17T15:17:30.663Z,99527.44
2022-10-17T15:19:58.297Z,99539.00
2022-10-17T15:22:25.816Z,99532.22
2022-10-17T15:24:53.388Z,99532.63
2022-10-17T15:27:26.327Z,99540.41
2022-10-17T15:29:53.467Z,99542.78
2022-10-17T15:32:20.473Z,99537.00
2022-10-17T15:34:47.561Z,99531.75
2022-10-17T15:37:21.841Z,99525.13
2022-10-17T15:39:54.913Z,99527.47
2022-10-17T15:42:30.525Z,99539.66
2022-10-17T15:44:58.461Z,99543.63
2022-10-17T15:47:31.298Z,99533.94
2022-10-17T15:50:00.494Z,99529.34
2022-10-17T15:52:28.102Z,99518.88
2022-10-17T15:54:57.306Z,99524.13
2022-10-17T15:57:39.162Z,99525.75
2022-10-17T16:00:26.634Z,99525.41
2022-10-17T16:02:53.778Z,99523.22
2022-10-17T16:05:29.088Z,99527.91
2022-10-17T16:07:57.804Z,99538.06
2022-10-17T16:10:26.000Z,99533.06
2022-10-17T16:12:53.029Z,99529.66
2022-10-17T16:15:28.042Z,99529.47
2022-10-17T16:17:57.226Z,99533.28
2022-10-17T16:20:25.413Z,99538.50
2022-10-17T16:22:59.516Z,99540.16
2022-10-17T16:25:29.029Z,99548.75
2022-10-17T16:27:58.772Z,99547.88
2022-10-17T16:30:29.094Z,99548.50
2022-10-17T16:32:56.930Z,99542.97
2022-10-17T16:35:33.283Z,99549.34
2022-10-17T16:38:05.690Z,99551.84
2022-10-17T16:40:32.973Z,99563.38
2022-10-17T16:43:00.157Z,99565.88
2022-10-17T16:45:27.257Z,99567.16
2022-10-17T16:47:55.473Z,99565.34
2022-10-17T16:50:22.649Z,99574.63
2022-10-17T16:52:49.819Z,99567.53
2022-10-17T16:55:20.069Z,99575.28
2022-10-17T16:57:48.932Z,99567.56
2022-10-17T17:00:17.525Z,99585.16
2022-10-17T17:02:48.208Z,99581.66
2022-10-17T17:05:15.720Z,99578.00
2022-10-17T17:07:48.056Z,99586.81
2022-10-17T17:10:15.419Z,99595.13
2022-10-17T17:12:42.503Z,99597.25
2022-10-17T17:15:09.540Z,99610.63
2022-10-17T17:17:49.660Z,99601.91
2022-10-17T17:20:18.458Z,99602.97
2022-10-17T17:22:45.445Z,99601.47
2022-10-17T17:25:12.470Z,99608.63
2022-10-17T17:27:39.460Z,99601.09
2022-10-17T17:30:07.697Z,99601.13
2022-10-17T17:32:34.773Z,99603.53
2022-10-17T17:35:02.035Z,99610.69
2022-10-17T17:37:29.445Z,99605.41
2022-10-17T17:39:56.751Z,99616.91
2022-10-17T17:42:23.787Z,99620.47
2022-10-17T17:44:50.854Z,99617.38
2022-10-17T17:47:18.579Z,99621.75
2022-10-17T17:49:45.634Z,99623.03
2022-10-17T17:52:12.640Z,99620.00
2022-10-17T17:54:40.976Z,99629.94
2022-10-17T17:57:08.334Z,99632.19
2022-10-17T17:59:35.533Z,99629.00
2022-10-17T18:02:02.889Z,99646.41
2022-10-17T18:04:30.029Z,99643.81
2022-10-17T18:06:57.053Z,99640.38
2022-10-17T18:09:24.125Z,99638.41
2022-10-17T18:11:51.179Z,99648.06
2022-10-17T18:14:23.620Z,99651.00
2022-10-17T18:16:50.759Z,99655.44
2022-10-17T18:19:17.962Z,99655.13
2022-10-17T18:21:45.162Z,99663.81
2022-10-17T18:24:12.258Z,99664.34
2022-10-17T18:26:39.270Z,99656.03
2022-10-17T18:29:06.301Z,99662.59
2022-10-17T18:31:35.813Z,99656.94
2022-10-17T18:34:05.472Z,99660.69
2022-10-17T18:36:34.676Z,99672.25
2022-10-17T18:39:02.365Z,99676.97
2022-10-17T18:41:30.128Z,99675.09
2022-10-17T18:43:57.897Z,99674.09
2022-10-17T18:49:18.931Z,99679.84
2022-10-17T18:51:47.393Z,99684.22
2022-10-17T18:54:21.523Z,99680.91
2022-10-17T18:56:54.572Z,99674.81
2022-10-17T18:59:22.516Z,99684.63
2022-10-17T19:01:50.642Z,99681.69
2022-10-17T19:04:18.304Z,99694.16
2022-10-17T19:06:45.773Z,99686.63
2022-10-17T19:09:14.902Z,99691.53
2022-10-17T19:11:42.862Z,99691.41
2022-10-17T19:14:13.451Z,99699.06
2022-10-17T19:16:45.758Z,99698.88
2022-10-17T19:19:21.189Z,99694.28
2022-10-17T19:21:49.002Z,99693.47
2022-10-17T19:24:24.221Z,99691.97
2022-10-17T19:26:55.682Z,99701.59
2022-10-17T19:29:28.124Z,99699.84
2022-10-17T19:34:23.751Z,99694.59
2022-10-17T19:36:51.055Z,99699.84
2022-10-17T19:39:23.260Z,99705.31
2022-10-17T19:41:50.543Z,99703.34
2022-10-17T19:44:17.825Z,99696.44
2022-10-17T19:46:46.938Z,99707.44
2022-10-17T19:49:15.864Z,99703.53
2022-10-17T19:51:46.572Z,99711.53
2022-10-17T19:54:16.389Z,99703.41
2022-10-17T19:56:45.577Z,99709.94
2022-10-17T19:59:15.395Z,99700.06
2022-10-17T20:01:43.330Z,99703.41
2022-10-17T20:04:35.703Z,99700.94
2022-10-17T20:07:02.729Z,99706.63
2022-10-17T20:09:29.840Z,99701.56
2022-10-17T20:11:56.857Z,99699.50
2022-10-17T20:14:23.869Z,99695.03
2022-10-17T20:16:52.383Z,99700.06
2022-10-17T20:19:19.828Z,99694.88
2022-10-17T20:21:46.797Z,99701.47
2022-10-17T20:24:16.408Z,99700.31
2022-10-17T20:26:44.333Z,99708.69
2022-10-17T20:29:20.935Z,99708.22
2022-10-17T20:31:48.969Z,99705.56
2022-10-17T20:34:18.440Z,99713.16
2022-10-17T20:36:46.675Z,99706.13
2022-10-17T20:39:16.422Z,99714.53
2022-10-17T20:41:45.568Z,99718.25
2022-10-17T20:44:13.320Z,99715.09
2022-10-17T20:46:45.318Z,99718.59
2022-10-17T20:49:20.948Z,99719.41
2022-10-17T20:51:48.242Z,99727.00
2022-10-17T20:54:15.450Z,99724.66
2022-10-17T20:56:42.786Z,99730.63
2022-10-17T20:59:14.329Z,99728.06
2022-10-17T21:01:41.899Z,99727.38
2022-10-17T21:04:44.323Z,99724.66
2022-10-17T21:06:57.062Z,99728.63
2022-10-17T21:09:24.484Z,99735.75
2022-10-17T21:11:55.234Z,99731.94
2022-10-17T21:14:24.725Z,99734.09
2022-10-17T21:16:52.238Z,99735.94
2022-10-17T21:19:19.614Z,99734.56
2022-10-17T21:21:46.907Z,99727.00
2022-10-17T21:24:18.053Z,99734.19
2022-10-17T21:26:49.978Z,99732.03
2022-10-17T21:29:17.425Z,99733.25
2022-10-17T21:31:45.222Z,99728.69
2022-10-17T21:34:20.749Z,99732.44
2022-10-17T21:36:50.727Z,99737.13
2022-10-17T21:39:17.833Z,99741.00
2022-10-17T21:41:45.431Z,99745.59
2022-10-17T21:44:25.009Z,99747.53
2022-10-17T21:46:53.696Z,99739.91
2022-10-17T21:49:24.242Z,99737.38
2022-10-17T21:51:52.648Z,99734.81
2022-10-17T21:54:22.837Z,99730.34
2022-10-17T21:56:50.498Z,99734.41
2022-10-17T21:59:17.953Z,99740.75
2022-10-17T22:01:46.263Z,99741.78
2022-10-17T22:04:39.174Z,99746.34
2022-10-17T22:07:06.578Z,99733.00
2022-10-17T22:09:33.901Z,99738.47
2022-10-17T22:12:01.008Z,99733.38
2022-10-17T22:14:28.373Z,99722.66
2022-10-17T22:16:55.713Z,99729.56
2022-10-17T22:19:26.059Z,99724.00
2022-10-17T22:21:54.166Z,99722.06
2022-10-17T22:26:54.162Z,99720.59
2022-10-17T22:29:21.516Z,99728.38
2022-10-17T22:31:48.719Z,99718.84
2022-10-17T22:34:17.545Z,99715.69
2022-10-17T22:36:45.088Z,99720.25
2022-10-17T22:39:12.168Z,99725.69
2022-10-17T22:41:39.150Z,99718.75
2022-10-17T22:44:06.687Z,99719.75
2022-10-17T22:46:33.898Z,99721.84
2022-10-17T22:49:07.182Z,99717.09
2022-10-17T22:51:34.450Z,99710.78
2022-10-17T22:54:01.840Z,99718.16
2022-10-17T22:56:29.284Z,99714.19
2022-10-17T22:58:56.464Z,99720.44
2022-10-17T23:01:25.313Z,99720.03
2022-10-17T23:03:53.139Z,99714.59
2022-10-17T23:06:21.354Z,99713.03
2022-10-17T23:08:49.018Z,99707.41
2022-10-17T23:11:16.379Z,99706.03
2022-10-17T23:13:43.515Z,99702.25
2022-10-17T23:16:10.644Z,99707.75
2022-10-17T23:18:39.060Z,99712.00
2022-10-17T23:21:07.161Z,99708.22
2022-10-17T23:23:34.632Z,99713.13
2022-10-17T23:26:13.629Z,99712.84
2022-10-17T23:28:42.383Z,99716.19
2022-10-17T23:31:14.940Z,99711.63
2022-10-17T23:33:44.824Z,99711.97
2022-10-17T23:36:14.685Z,99712.50
2022-10-17T23:38:44.168Z,99706.25
2022-10-17T23:41:12.058Z,99702.31
2022-10-17T23:43:39.217Z,99700.28
2022-10-17T23:46:07.138Z,99697.38
2022-10-17T23:48:37.401Z,99691.91
2022-10-17T23:51:07.202Z,99685.63
2022-10-17T23:53:35.971Z,99693.00
2022-10-17T23:56:04.929Z,99694.66
2022-10-17T23:58:32.101Z,99686.41
